Portada
METAR-TAF:

METAR-TAF

Aeroports :

Bisha, Aràbia Saudita

latitud: 19-59N, longitud: 042-37E, altitud: 1167 m

Observació

L'informe es va fer fa 1 hora i 7 minuts, a les 18:00 UTC
Vent 6 kt del Est
Temperatura 32°C
Humitat 23%
Pressió 1013 hPa
Visibilitat 10 km o més
sense núvols per sota de 1500 mi sense presència de cumulonimbus.

METAR: OEBH 021800Z 08006KT CAVOK 32/08 Q1013 NOSIG

Hora: 22:07 (19:07 UTC)

Pronòstic

L'informe es va fer fa 8 hores i 7 minuts, a les 11:00 UTC
Pronòstic vàlid del 02 a les 12 UTC al 03 a les 18 UTC
Vent 12 kt del Nord-Est
Visibilitat 10 km o més
sense núvols per sota de 1500 mi sense presència de cumulonimbus.
Evolucionant progressivament
l' 02 a les 18 UTC al 02 a les 20 UTC
Vent 3 kt amb direcció variable

TAF: OEBH 021100Z 0212/0318 04012KT CAVOK BECMG 0218/0220 VRB03KT

Observacions i pronòstics meteorològics de més de 4000 aeroports (METAR i TAF).

Les estacions disponibles són els punts grocs i vermells al mapa.

Posi el ratolí al punt desitjat per veure el nom de l'estació.

Feu clic per veure les observacions i els pronòstics meteorològics.

Per canviar el mapa: feu clic els botons verds amb una creu de color negre per apropar; al botó verd amb un guió per allunyar la imatge; o en les fletxes verdes per a mapes adjacents.


METAR-TAF: